ENVA Informações do Aeroporto

Informações da Pista
Pista 09 Comprimento 9052 ft Largura 148 ft
Elevação 17 ft Limite 830 ft Heading 90
Pista 27 Comprimento 9052 ft Largura 148 ft
Elevação 56 ft Limite 459 ft Heading 270
Pista 13 Comprimento 4771 ft Largura 118 ft
Elevação 30 ft Limite 412 ft Heading 134
Pista 31 Comprimento 4771 ft Largura 118 ft
Elevação 54 ft Limite 962 ft Heading 314
Pista 14 Comprimento 3117 ft Largura 118 ft
Elevação 30 ft Limite 0 ft Heading 134
Pista 32 Comprimento 3117 ft Largura 118 ft
Elevação 54 ft Limite 0 ft Heading 314
Frequências do Aeroporto
Tipo APP Nome APP Frequência 118.6 MHZ
Tipo ATIS Nome ATIS Frequência 127.55 MHZ
Tipo GND Nome Værnes gro Frequência 121.6 MHZ
Tipo TWR Nome TWR Frequência 119.4 MHZ
Navaids do Aeroporto
Tipo NDB Nome Flornes Frequência 380 KHZ
Tipo NDB Nome Grakallen Frequência 358 KHZ
Tipo VOR-DME Nome Trondheim Frequência 112500 KHZ
Tipo TACAN Nome Vaernes Frequência 109600 KHZ
Informações meteorológicas do aeroporto e NOTAM
ADDS - METARS form results

(1154 UTC 26 September 2020)
Data provider http://aviationweather.gov/metar/data/
 
METAR text: ENVA 261150Z 08005KT 050V110 9999 BKN053 08/03 Q1017 NOSIG RMK WIND 670FT 06004KT
Conditions at: ENVA (TRONDHEIM/VAERNE, NO) observed 1150 UTC 26 September 2020
Temperature: 8.0°C (46°F)
Dewpoint: 3.0°C (37°F) [RH = 71%]
Pressure (altimeter): 30.03 inches Hg (1017.0 mb)
Winds: from the E (80 degrees) at 6 MPH (5 knots; 2.6 m/s)
Visibility: 6 or more miles (10+ km)
Ceiling: 5300 feet AGL
Clouds: broken clouds at 5300 feet AGL
Weather: no significant weather observed at this time

METAR text: ENVA 261120Z 00000KT 9999 FEW030 BKN056 08/03 Q1017 NOSIG RMK WIND 670FT VRB02KT
Conditions at: ENVA (TRONDHEIM/VAERNE, NO) observed 1120 UTC 26 September 2020
Temperature: 8.0°C (46°F)
Dewpoint: 3.0°C (37°F) [RH = 71%]
Pressure (altimeter): 30.03 inches Hg (1017.0 mb)
Winds: calm
Visibility: 6 or more miles (10+ km)
Ceiling: 5600 feet AGL
Clouds: few clouds at 3000 feet AGL
broken clouds at 5600 feet AGL
Weather: no significant weather observed at this time

Forecast for: ENVA (TRONDHEIM/VAERNE, NO)
Text: TAF ENVA 2612/2712 10005KT 9999 FEW020 BKN050
Forecast period: 1200 UTC 26 September 2020 to 1200 UTC 27 September 2020
Forecast type: FROM: standard forecast or significant change
Winds: from the E (100 degrees) at 6 MPH (5 knots; 2.6 m/s)
Visibility: 6 or more miles (10+ km)
Ceiling: 5000 feet AGL
Clouds: few clouds at 2000 feet AGL
broken clouds at 5000 feet AGL
Weather: no significant weather forecast for this period